Saint-Vith, Belgium
Current Conditions -  °F | °C
As of 10:25 AM on Thursday 27 Nov 2014 (Local Time) from EBLB Reporting Station
Overcast Overcast  
Wind Chill: 45°   Ceiling: 200
Heat Index: 45°   Visibility: 3mi
Dew Point: 45°   Wind: 3mph
Humidity: 100%   Direction: 180°S
Pressure: 29.77"   Gusts: NA
Location:  50.28°N, 6.13°E
Report Text: EBLB 270925Z AUTO 18003KT 5000 BKN002/// OVC004/// 07/07 Q1008 AMB
Loading
Personal Weather Stations






























Interactive Weather Map New forecast layout! Learn more

10-Day Weather Forecast

Advertisements
Track Severe Weather on mobile